sensor_id;sensor_type;location;lat;lon;timestamp;P1;durP1;ratioP1;P2;durP2;ratioP2
53271;SDS011;39160;48.580;7.756;2023-04-25T00:00:23;2.42;;;1.30;;
53271;SDS011;39160;48.580;7.756;2023-04-25T00:05:13;1.27;;;1.10;;
53271;SDS011;39160;48.580;7.756;2023-04-25T00:10:07;4.32;;;1.40;;
53271;SDS011;39160;48.580;7.756;2023-04-25T00:14:59;1.88;;;1.13;;
53271;SDS011;39160;48.580;7.756;2023-04-25T00:19:50;1.77;;;1.13;;
53271;SDS011;39160;48.580;7.756;2023-04-25T00:24:40;2.80;;;1.33;;
53271;SDS011;39160;48.580;7.756;2023-04-25T00:29:31;2.17;;;1.05;;
53271;SDS011;39160;48.580;7.756;2023-04-25T00:34:22;2.13;;;1.23;;
53271;SDS011;39160;48.580;7.756;2023-04-25T00:39:13;1.85;;;1.20;;
53271;SDS011;39160;48.580;7.756;2023-04-25T00:44:04;1.70;;;1.30;;
53271;SDS011;39160;48.580;7.756;2023-04-25T00:48:57;2.58;;;1.60;;
53271;SDS011;39160;48.580;7.756;2023-04-25T00:53:48;3.50;;;1.35;;
53271;SDS011;39160;48.580;7.756;2023-04-25T00:58:40;1.60;;;1.20;;
53271;SDS011;39160;48.580;7.756;2023-04-25T01:03:32;1.40;;;1.10;;
53271;SDS011;39160;48.580;7.756;2023-04-25T01:08:25;3.85;;;1.40;;
53271;SDS011;39160;48.580;7.756;2023-04-25T01:13:16;2.78;;;1.63;;
53271;SDS011;39160;48.580;7.756;2023-04-25T01:18:07;4.68;;;1.92;;
53271;SDS011;39160;48.580;7.756;2023-04-25T01:22:57;2.35;;;1.70;;
53271;SDS011;39160;48.580;7.756;2023-04-25T01:27:48;2.25;;;1.50;;
53271;SDS011;39160;48.580;7.756;2023-04-25T01:32:39;2.20;;;1.98;;
53271;SDS011;39160;48.580;7.756;2023-04-25T01:37:31;2.90;;;1.63;;
53271;SDS011;39160;48.580;7.756;2023-04-25T01:42:22;3.47;;;1.92;;
53271;SDS011;39160;48.580;7.756;2023-04-25T01:47:12;1.88;;;1.67;;
53271;SDS011;39160;48.580;7.756;2023-04-25T01:52:03;2.15;;;1.73;;
53271;SDS011;39160;48.580;7.756;2023-04-25T01:56:54;4.20;;;2.25;;
53271;SDS011;39160;48.580;7.756;2023-04-25T02:01:47;2.95;;;2.00;;
53271;SDS011;39160;48.580;7.756;2023-04-25T02:06:38;2.92;;;1.80;;
53271;SDS011;39160;48.580;7.756;2023-04-25T02:11:28;2.60;;;1.45;;
53271;SDS011;39160;48.580;7.756;2023-04-25T02:16:19;4.65;;;2.53;;
53271;SDS011;39160;48.580;7.756;2023-04-25T02:21:10;3.78;;;1.58;;
53271;SDS011;39160;48.580;7.756;2023-04-25T02:26:01;2.50;;;1.63;;
53271;SDS011;39160;48.580;7.756;2023-04-25T02:30:52;2.60;;;2.10;;
53271;SDS011;39160;48.580;7.756;2023-04-25T02:35:43;3.55;;;1.92;;
53271;SDS011;39160;48.580;7.756;2023-04-25T02:40:33;3.45;;;2.53;;
53271;SDS011;39160;48.580;7.756;2023-04-25T02:45:24;2.55;;;1.70;;
53271;SDS011;39160;48.580;7.756;2023-04-25T02:50:14;2.60;;;1.83;;
53271;SDS011;39160;48.580;7.756;2023-04-25T02:55:05;2.90;;;1.45;;
53271;SDS011;39160;48.580;7.756;2023-04-25T02:59:56;3.40;;;1.50;;
53271;SDS011;39160;48.580;7.756;2023-04-25T03:04:47;1.70;;;1.60;;
53271;SDS011;39160;48.580;7.756;2023-04-25T03:09:37;2.75;;;1.38;;
53271;SDS011;39160;48.580;7.756;2023-04-25T03:14:28;2.25;;;1.48;;
53271;SDS011;39160;48.580;7.756;2023-04-25T03:19:19;2.30;;;1.30;;
53271;SDS011;39160;48.580;7.756;2023-04-25T03:24:10;2.78;;;1.75;;
53271;SDS011;39160;48.580;7.756;2023-04-25T03:29:01;2.53;;;1.65;;
53271;SDS011;39160;48.580;7.756;2023-04-25T03:33:52;4.65;;;1.58;;
53271;SDS011;39160;48.580;7.756;2023-04-25T03:38:43;2.40;;;1.73;;
53271;SDS011;39160;48.580;7.756;2023-04-25T03:43:34;4.05;;;2.10;;
53271;SDS011;39160;48.580;7.756;2023-04-25T03:48:25;2.83;;;1.92;;
53271;SDS011;39160;48.580;7.756;2023-04-25T03:53:16;3.75;;;1.80;;
53271;SDS011;39160;48.580;7.756;2023-04-25T03:58:06;3.75;;;2.17;;
53271;SDS011;39160;48.580;7.756;2023-04-25T04:02:58;3.00;;;2.00;;
53271;SDS011;39160;48.580;7.756;2023-04-25T04:07:48;4.22;;;2.08;;
53271;SDS011;39160;48.580;7.756;2023-04-25T04:12:39;4.50;;;2.30;;
53271;SDS011;39160;48.580;7.756;2023-04-25T04:17:30;5.82;;;2.83;;
53271;SDS011;39160;48.580;7.756;2023-04-25T04:22:20;4.60;;;2.50;;
53271;SDS011;39160;48.580;7.756;2023-04-25T04:27:11;5.75;;;2.15;;
53271;SDS011;39160;48.580;7.756;2023-04-25T04:32:02;4.07;;;2.75;;
53271;SDS011;39160;48.580;7.756;2023-04-25T04:36:53;4.10;;;2.65;;
53271;SDS011;39160;48.580;7.756;2023-04-25T04:41:44;2.55;;;1.83;;
53271;SDS011;39160;48.580;7.756;2023-04-25T04:46:35;6.60;;;2.03;;
53271;SDS011;39160;48.580;7.756;2023-04-25T04:51:31;5.25;;;2.40;;
53271;SDS011;39160;48.580;7.756;2023-04-25T04:56:22;3.80;;;2.60;;
53271;SDS011;39160;48.580;7.756;2023-04-25T05:01:13;4.88;;;3.00;;
53271;SDS011;39160;48.580;7.756;2023-04-25T05:06:06;3.92;;;2.35;;
53271;SDS011;39160;48.580;7.756;2023-04-25T05:10:56;5.22;;;2.78;;
53271;SDS011;39160;48.580;7.756;2023-04-25T05:15:47;3.30;;;2.17;;
53271;SDS011;39160;48.580;7.756;2023-04-25T05:20:37;4.50;;;3.50;;
53271;SDS011;39160;48.580;7.756;2023-04-25T05:25:28;6.35;;;2.42;;
53271;SDS011;39160;48.580;7.756;2023-04-25T05:30:19;3.15;;;2.10;;
53271;SDS011;39160;48.580;7.756;2023-04-25T05:35:09;2.97;;;2.55;;
53271;SDS011;39160;48.580;7.756;2023-04-25T05:40:00;3.45;;;2.17;;
53271;SDS011;39160;48.580;7.756;2023-04-25T05:44:50;2.47;;;1.88;;
53271;SDS011;39160;48.580;7.756;2023-04-25T05:49:41;3.00;;;1.80;;
53271;SDS011;39160;48.580;7.756;2023-04-25T05:54:32;4.40;;;1.75;;
53271;SDS011;39160;48.580;7.756;2023-04-25T05:59:22;5.40;;;2.78;;
53271;SDS011;39160;48.580;7.756;2023-04-25T06:04:13;3.70;;;2.30;;
53271;SDS011;39160;48.580;7.756;2023-04-25T06:09:04;3.90;;;1.90;;
53271;SDS011;39160;48.580;7.756;2023-04-25T06:13:54;4.38;;;1.52;;
53271;SDS011;39160;48.580;7.756;2023-04-25T06:18:45;3.58;;;1.58;;
53271;SDS011;39160;48.580;7.756;2023-04-25T06:23:36;4.03;;;1.48;;
53271;SDS011;39160;48.580;7.756;2023-04-25T06:28:26;2.03;;;1.35;;
53271;SDS011;39160;48.580;7.756;2023-04-25T06:33:17;1.85;;;1.20;;
53271;SDS011;39160;48.580;7.756;2023-04-25T06:38:07;1.17;;;0.88;;
53271;SDS011;39160;48.580;7.756;2023-04-25T06:42:58;1.98;;;1.20;;
53271;SDS011;39160;48.580;7.756;2023-04-25T06:47:49;1.02;;;1.00;;
53271;SDS011;39160;48.580;7.756;2023-04-25T06:52:40;1.58;;;1.05;;
53271;SDS011;39160;48.580;7.756;2023-04-25T06:57:30;2.55;;;1.13;;
53271;SDS011;39160;48.580;7.756;2023-04-25T07:02:21;4.43;;;1.15;;
53271;SDS011;39160;48.580;7.756;2023-04-25T07:07:12;1.30;;;0.82;;
53271;SDS011;39160;48.580;7.756;2023-04-25T07:12:03;1.15;;;0.95;;
53271;SDS011;39160;48.580;7.756;2023-04-25T07:16:53;1.90;;;1.73;;
53271;SDS011;39160;48.580;7.756;2023-04-25T07:21:46;1.13;;;0.98;;
53271;SDS011;39160;48.580;7.756;2023-04-25T07:26:37;1.10;;;0.80;;
53271;SDS011;39160;48.580;7.756;2023-04-25T07:31:27;2.45;;;0.85;;
53271;SDS011;39160;48.580;7.756;2023-04-25T07:36:18;1.73;;;1.33;;
53271;SDS011;39160;48.580;7.756;2023-04-25T07:41:08;2.70;;;1.02;;
53271;SDS011;39160;48.580;7.756;2023-04-25T07:45:59;1.40;;;0.93;;
53271;SDS011;39160;48.580;7.756;2023-04-25T07:50:50;1.27;;;0.95;;
53271;SDS011;39160;48.580;7.756;2023-04-25T07:55:40;1.50;;;1.05;;
53271;SDS011;39160;48.580;7.756;2023-04-25T08:00:31;1.77;;;1.00;;
53271;SDS011;39160;48.580;7.756;2023-04-25T08:05:22;1.50;;;0.80;;
53271;SDS011;39160;48.580;7.756;2023-04-25T08:10:12;3.60;;;1.00;;
53271;SDS011;39160;48.580;7.756;2023-04-25T08:15:05;2.95;;;0.98;;
53271;SDS011;39160;48.580;7.756;2023-04-25T08:19:56;1.42;;;0.88;;
53271;SDS011;39160;48.580;7.756;2023-04-25T08:24:47;0.77;;;0.50;;
53271;SDS011;39160;48.580;7.756;2023-04-25T08:29:37;1.10;;;0.82;;
53271;SDS011;39160;48.580;7.756;2023-04-25T08:34:28;0.50;;;0.40;;
53271;SDS011;39160;48.580;7.756;2023-04-25T08:39:19;1.13;;;0.70;;
53271;SDS011;39160;48.580;7.756;2023-04-25T08:44:11;1.25;;;0.60;;
53271;SDS011;39160;48.580;7.756;2023-04-25T08:49:01;1.10;;;0.63;;
53271;SDS011;39160;48.580;7.756;2023-04-25T08:53:52;1.77;;;0.80;;
53271;SDS011;39160;48.580;7.756;2023-04-25T08:58:47;1.63;;;0.75;;
53271;SDS011;39160;48.580;7.756;2023-04-25T09:03:39;1.27;;;0.80;;
53271;SDS011;39160;48.580;7.756;2023-04-25T09:08:30;0.88;;;0.77;;
53271;SDS011;39160;48.580;7.756;2023-04-25T09:13:27;0.90;;;0.60;;
53271;SDS011;39160;48.580;7.756;2023-04-25T09:18:25;1.05;;;0.88;;
53271;SDS011;39160;48.580;7.756;2023-04-25T09:23:16;0.93;;;0.57;;
53271;SDS011;39160;48.580;7.756;2023-04-25T09:28:10;2.60;;;0.95;;
53271;SDS011;39160;48.580;7.756;2023-04-25T09:33:04;1.40;;;0.88;;
53271;SDS011;39160;48.580;7.756;2023-04-25T09:37:56;2.35;;;1.25;;
53271;SDS011;39160;48.580;7.756;2023-04-25T09:42:47;0.82;;;0.80;;
53271;SDS011;39160;48.580;7.756;2023-04-25T09:47:37;2.22;;;1.08;;
53271;SDS011;39160;48.580;7.756;2023-04-25T09:52:28;1.27;;;0.80;;
53271;SDS011;39160;48.580;7.756;2023-04-25T09:57:21;2.22;;;0.95;;
53271;SDS011;39160;48.580;7.756;2023-04-25T10:02:14;1.02;;;0.90;;
53271;SDS011;39160;48.580;7.756;2023-04-25T10:07:07;2.20;;;0.98;;
53271;SDS011;39160;48.580;7.756;2023-04-25T10:11:59;1.50;;;1.05;;
53271;SDS011;39160;48.580;7.756;2023-04-25T10:16:50;3.88;;;1.40;;
53271;SDS011;39160;48.580;7.756;2023-04-25T10:21:46;1.58;;;0.88;;
53271;SDS011;39160;48.580;7.756;2023-04-25T10:26:41;3.35;;;2.30;;
53271;SDS011;39160;48.580;7.756;2023-04-25T10:31:32;4.22;;;2.17;;
53271;SDS011;39160;48.580;7.756;2023-04-25T10:36:23;4.40;;;2.33;;
53271;SDS011;39160;48.580;7.756;2023-04-25T10:41:17;3.53;;;1.33;;
53271;SDS011;39160;48.580;7.756;2023-04-25T10:46:22;3.85;;;2.05;;
53271;SDS011;39160;48.580;7.756;2023-04-25T10:51:35;2.20;;;1.27;;
53271;SDS011;39160;48.580;7.756;2023-04-25T11:01:27;3.53;;;1.48;;
53271;SDS011;39160;48.580;7.756;2023-04-25T11:06:29;2.72;;;2.03;;
53271;SDS011;39160;48.580;7.756;2023-04-25T11:11:28;2.30;;;1.67;;
53271;SDS011;39160;48.580;7.756;2023-04-25T11:16:19;3.10;;;1.90;;
53271;SDS011;39160;48.580;7.756;2023-04-25T11:21:10;3.65;;;2.13;;
53271;SDS011;39160;48.580;7.756;2023-04-25T11:26:01;2.13;;;1.50;;
53271;SDS011;39160;48.580;7.756;2023-04-25T11:30:52;1.60;;;1.23;;
53271;SDS011;39160;48.580;7.756;2023-04-25T11:35:43;2.65;;;1.23;;
53271;SDS011;39160;48.580;7.756;2023-04-25T11:40:35;1.55;;;1.27;;
53271;SDS011;39160;48.580;7.756;2023-04-25T11:45:25;3.60;;;1.52;;
53271;SDS011;39160;48.580;7.756;2023-04-25T11:50:16;3.47;;;1.40;;
53271;SDS011;39160;48.580;7.756;2023-04-25T12:00:06;2.35;;;1.55;;
53271;SDS011;39160;48.580;7.756;2023-04-25T12:05:08;3.88;;;1.90;;
53271;SDS011;39160;48.580;7.756;2023-04-25T12:10:04;2.83;;;1.70;;
53271;SDS011;39160;48.580;7.756;2023-04-25T12:14:56;2.80;;;1.73;;
53271;SDS011;39160;48.580;7.756;2023-04-25T12:19:46;4.55;;;2.42;;
53271;SDS011;39160;48.580;7.756;2023-04-25T12:24:37;3.80;;;2.05;;
53271;SDS011;39160;48.580;7.756;2023-04-25T12:29:30;3.67;;;2.08;;
53271;SDS011;39160;48.580;7.756;2023-04-25T12:34:22;2.53;;;1.52;;
53271;SDS011;39160;48.580;7.756;2023-04-25T12:39:17;1.73;;;1.38;;
53271;SDS011;39160;48.580;7.756;2023-04-25T12:44:09;1.55;;;1.25;;
53271;SDS011;39160;48.580;7.756;2023-04-25T12:49:00;2.22;;;1.30;;
53271;SDS011;39160;48.580;7.756;2023-04-25T12:53:53;1.50;;;1.25;;
53271;SDS011;39160;48.580;7.756;2023-04-25T12:58:43;2.25;;;1.48;;
53271;SDS011;39160;48.580;7.756;2023-04-25T13:03:34;1.70;;;1.20;;
53271;SDS011;39160;48.580;7.756;2023-04-25T13:08:25;3.97;;;1.15;;
53271;SDS011;39160;48.580;7.756;2023-04-25T13:13:16;1.90;;;1.45;;
53271;SDS011;39160;48.580;7.756;2023-04-25T13:18:06;1.48;;;1.33;;
53271;SDS011;39160;48.580;7.756;2023-04-25T13:22:57;1.95;;;1.08;;
53271;SDS011;39160;48.580;7.756;2023-04-25T13:27:48;1.65;;;1.10;;
53271;SDS011;39160;48.580;7.756;2023-04-25T13:32:39;1.30;;;0.95;;
53271;SDS011;39160;48.580;7.756;2023-04-25T13:37:30;2.05;;;1.23;;
53271;SDS011;39160;48.580;7.756;2023-04-25T13:42:23;2.30;;;1.30;;
53271;SDS011;39160;48.580;7.756;2023-04-25T13:47:14;1.88;;;1.40;;
53271;SDS011;39160;48.580;7.756;2023-04-25T13:52:04;1.45;;;1.17;;
53271;SDS011;39160;48.580;7.756;2023-04-25T13:56:55;1.65;;;1.42;;
53271;SDS011;39160;48.580;7.756;2023-04-25T14:01:48;2.60;;;1.58;;
53271;SDS011;39160;48.580;7.756;2023-04-25T14:06:39;2.15;;;1.42;;
53271;SDS011;39160;48.580;7.756;2023-04-25T14:11:31;2.22;;;1.50;;
53271;SDS011;39160;48.580;7.756;2023-04-25T14:16:21;2.22;;;1.70;;
53271;SDS011;39160;48.580;7.756;2023-04-25T14:21:13;1.85;;;1.42;;
53271;SDS011;39160;48.580;7.756;2023-04-25T14:26:03;1.55;;;1.42;;
53271;SDS011;39160;48.580;7.756;2023-04-25T14:30:55;2.35;;;1.10;;
53271;SDS011;39160;48.580;7.756;2023-04-25T14:35:46;3.63;;;1.92;;
53271;SDS011;39160;48.580;7.756;2023-04-25T14:40:36;2.50;;;2.25;;
53271;SDS011;39160;48.580;7.756;2023-04-25T14:45:28;3.45;;;2.42;;
53271;SDS011;39160;48.580;7.756;2023-04-25T14:50:18;3.25;;;1.95;;
53271;SDS011;39160;48.580;7.756;2023-04-25T14:55:09;2.50;;;1.63;;
53271;SDS011;39160;48.580;7.756;2023-04-25T15:00:00;1.40;;;1.27;;
53271;SDS011;39160;48.580;7.756;2023-04-25T15:04:51;1.42;;;1.30;;
53271;SDS011;39160;48.580;7.756;2023-04-25T15:09:43;2.38;;;1.45;;
53271;SDS011;39160;48.580;7.756;2023-04-25T15:14:33;2.65;;;1.30;;
53271;SDS011;39160;48.580;7.756;2023-04-25T15:19:24;1.80;;;1.50;;
53271;SDS011;39160;48.580;7.756;2023-04-25T15:24:15;2.83;;;1.50;;
53271;SDS011;39160;48.580;7.756;2023-04-25T15:29:06;1.50;;;1.20;;
53271;SDS011;39160;48.580;7.756;2023-04-25T15:33:56;1.95;;;1.50;;
53271;SDS011;39160;48.580;7.756;2023-04-25T15:38:47;2.13;;;1.58;;
53271;SDS011;39160;48.580;7.756;2023-04-25T15:43:37;3.10;;;1.60;;
53271;SDS011;39160;48.580;7.756;2023-04-25T15:48:29;1.90;;;1.25;;
53271;SDS011;39160;48.580;7.756;2023-04-25T15:53:21;1.98;;;1.40;;
53271;SDS011;39160;48.580;7.756;2023-04-25T15:58:12;1.77;;;1.33;;
53271;SDS011;39160;48.580;7.756;2023-04-25T16:03:02;2.72;;;1.38;;
53271;SDS011;39160;48.580;7.756;2023-04-25T16:07:54;2.25;;;1.20;;
53271;SDS011;39160;48.580;7.756;2023-04-25T16:12:44;2.95;;;1.50;;
53271;SDS011;39160;48.580;7.756;2023-04-25T16:17:37;1.52;;;1.30;;
53271;SDS011;39160;48.580;7.756;2023-04-25T16:22:27;3.40;;;1.58;;
53271;SDS011;39160;48.580;7.756;2023-04-25T16:27:18;1.80;;;1.20;;
53271;SDS011;39160;48.580;7.756;2023-04-25T16:32:10;3.55;;;1.02;;
53271;SDS011;39160;48.580;7.756;2023-04-25T16:37:02;2.72;;;1.52;;
53271;SDS011;39160;48.580;7.756;2023-04-25T16:41:53;2.30;;;1.38;;
53271;SDS011;39160;48.580;7.756;2023-04-25T16:46:44;3.00;;;1.65;;
53271;SDS011;39160;48.580;7.756;2023-04-25T16:51:34;2.75;;;1.67;;
53271;SDS011;39160;48.580;7.756;2023-04-25T16:56:25;1.73;;;1.40;;
53271;SDS011;39160;48.580;7.756;2023-04-25T17:01:16;1.38;;;1.13;;
53271;SDS011;39160;48.580;7.756;2023-04-25T17:06:09;3.22;;;2.05;;
53271;SDS011;39160;48.580;7.756;2023-04-25T17:11:00;5.53;;;1.65;;
53271;SDS011;39160;48.580;7.756;2023-04-25T17:15:51;2.42;;;1.00;;
53271;SDS011;39160;48.580;7.756;2023-04-25T17:20:41;1.20;;;1.00;;
53271;SDS011;39160;48.580;7.756;2023-04-25T17:25:32;1.48;;;1.00;;
53271;SDS011;39160;48.580;7.756;2023-04-25T17:30:23;3.45;;;1.63;;
53271;SDS011;39160;48.580;7.756;2023-04-25T17:35:14;2.08;;;1.25;;
53271;SDS011;39160;48.580;7.756;2023-04-25T17:40:06;2.67;;;1.50;;
53271;SDS011;39160;48.580;7.756;2023-04-25T17:45:00;4.17;;;1.73;;
53271;SDS011;39160;48.580;7.756;2023-04-25T17:49:51;3.13;;;1.50;;
53271;SDS011;39160;48.580;7.756;2023-04-25T17:54:43;1.20;;;1.05;;
53271;SDS011;39160;48.580;7.756;2023-04-25T17:59:34;2.42;;;1.33;;
53271;SDS011;39160;48.580;7.756;2023-04-25T18:04:25;2.17;;;1.10;;
53271;SDS011;39160;48.580;7.756;2023-04-25T18:09:16;2.97;;;1.33;;
53271;SDS011;39160;48.580;7.756;2023-04-25T18:14:07;3.25;;;1.60;;
53271;SDS011;39160;48.580;7.756;2023-04-25T18:19:03;2.25;;;1.48;;
53271;SDS011;39160;48.580;7.756;2023-04-25T18:24:00;2.60;;;1.98;;
53271;SDS011;39160;48.580;7.756;2023-04-25T18:28:51;3.95;;;2.17;;
53271;SDS011;39160;48.580;7.756;2023-04-25T18:33:41;2.95;;;2.03;;
53271;SDS011;39160;48.580;7.756;2023-04-25T18:38:32;5.45;;;2.40;;
53271;SDS011;39160;48.580;7.756;2023-04-25T18:43:24;5.25;;;3.33;;
53271;SDS011;39160;48.580;7.756;2023-04-25T18:48:14;4.22;;;2.90;;
53271;SDS011;39160;48.580;7.756;2023-04-25T18:53:05;3.47;;;2.22;;
53271;SDS011;39160;48.580;7.756;2023-04-25T18:57:56;5.38;;;2.80;;
53271;SDS011;39160;48.580;7.756;2023-04-25T19:02:47;3.70;;;2.42;;
53271;SDS011;39160;48.580;7.756;2023-04-25T19:07:38;5.57;;;3.25;;
53271;SDS011;39160;48.580;7.756;2023-04-25T19:12:29;5.63;;;2.10;;
53271;SDS011;39160;48.580;7.756;2023-04-25T19:17:22;4.88;;;2.72;;
53271;SDS011;39160;48.580;7.756;2023-04-25T19:22:12;4.10;;;2.78;;
53271;SDS011;39160;48.580;7.756;2023-04-25T19:27:03;7.88;;;2.78;;
53271;SDS011;39160;48.580;7.756;2023-04-25T19:31:54;5.80;;;3.50;;
53271;SDS011;39160;48.580;7.756;2023-04-25T19:36:46;5.60;;;3.05;;
53271;SDS011;39160;48.580;7.756;2023-04-25T19:41:37;4.82;;;3.05;;
53271;SDS011;39160;48.580;7.756;2023-04-25T19:46:28;4.97;;;3.20;;
53271;SDS011;39160;48.580;7.756;2023-04-25T19:51:19;5.65;;;3.92;;
53271;SDS011;39160;48.580;7.756;2023-04-25T19:56:10;4.45;;;3.10;;
53271;SDS011;39160;48.580;7.756;2023-04-25T20:01:01;4.10;;;2.90;;
53271;SDS011;39160;48.580;7.756;2023-04-25T20:05:53;7.82;;;3.13;;
53271;SDS011;39160;48.580;7.756;2023-04-25T20:10:43;9.95;;;3.58;;
53271;SDS011;39160;48.580;7.756;2023-04-25T20:15:34;4.75;;;3.15;;
53271;SDS011;39160;48.580;7.756;2023-04-25T20:20:25;3.78;;;2.20;;
53271;SDS011;39160;48.580;7.756;2023-04-25T20:25:16;5.38;;;2.97;;
53271;SDS011;39160;48.580;7.756;2023-04-25T20:30:07;4.03;;;2.25;;
53271;SDS011;39160;48.580;7.756;2023-04-25T20:35:00;4.97;;;1.83;;
53271;SDS011;39160;48.580;7.756;2023-04-25T20:39:54;2.63;;;1.35;;
53271;SDS011;39160;48.580;7.756;2023-04-25T20:44:45;3.10;;;1.58;;
53271;SDS011;39160;48.580;7.756;2023-04-25T20:49:38;1.77;;;1.15;;
53271;SDS011;39160;48.580;7.756;2023-04-25T20:54:28;2.00;;;1.35;;
53271;SDS011;39160;48.580;7.756;2023-04-25T20:59:20;2.33;;;1.23;;
53271;SDS011;39160;48.580;7.756;2023-04-25T21:04:12;2.90;;;1.83;;
53271;SDS011;39160;48.580;7.756;2023-04-25T21:09:02;3.63;;;1.90;;
53271;SDS011;39160;48.580;7.756;2023-04-25T21:13:53;1.55;;;1.10;;
53271;SDS011;39160;48.580;7.756;2023-04-25T21:18:44;2.75;;;1.70;;
53271;SDS011;39160;48.580;7.756;2023-04-25T21:23:35;2.95;;;1.30;;
53271;SDS011;39160;48.580;7.756;2023-04-25T21:28:25;4.55;;;1.80;;
53271;SDS011;39160;48.580;7.756;2023-04-25T21:33:16;2.50;;;1.90;;
53271;SDS011;39160;48.580;7.756;2023-04-25T21:38:07;2.40;;;1.67;;
53271;SDS011;39160;48.580;7.756;2023-04-25T21:42:58;2.42;;;1.48;;
53271;SDS011;39160;48.580;7.756;2023-04-25T21:47:48;2.60;;;2.40;;
53271;SDS011;39160;48.580;7.756;2023-04-25T21:52:39;3.58;;;1.80;;
53271;SDS011;39160;48.580;7.756;2023-04-25T21:57:30;3.30;;;1.95;;
53271;SDS011;39160;48.580;7.756;2023-04-25T22:02:21;2.47;;;1.48;;
53271;SDS011;39160;48.580;7.756;2023-04-25T22:07:12;6.13;;;2.25;;
53271;SDS011;39160;48.580;7.756;2023-04-25T22:12:03;2.38;;;1.23;;
53271;SDS011;39160;48.580;7.756;2023-04-25T22:16:54;4.10;;;1.38;;
53271;SDS011;39160;48.580;7.756;2023-04-25T22:21:45;3.10;;;1.60;;
53271;SDS011;39160;48.580;7.756;2023-04-25T22:26:35;4.00;;;1.50;;
53271;SDS011;39160;48.580;7.756;2023-04-25T22:31:26;3.08;;;1.50;;
53271;SDS011;39160;48.580;7.756;2023-04-25T22:36:17;2.72;;;1.70;;
53271;SDS011;39160;48.580;7.756;2023-04-25T22:41:08;4.50;;;2.25;;
53271;SDS011;39160;48.580;7.756;2023-04-25T22:45:59;2.70;;;1.67;;
53271;SDS011;39160;48.580;7.756;2023-04-25T22:50:59;3.17;;;1.60;;
53271;SDS011;39160;48.580;7.756;2023-04-25T22:55:54;4.47;;;1.88;;
53271;SDS011;39160;48.580;7.756;2023-04-25T23:00:48;2.67;;;2.05;;
53271;SDS011;39160;48.580;7.756;2023-04-25T23:05:40;3.88;;;2.42;;
53271;SDS011;39160;48.580;7.756;2023-04-25T23:10:31;4.82;;;2.13;;
53271;SDS011;39160;48.580;7.756;2023-04-25T23:15:24;2.78;;;2.05;;
53271;SDS011;39160;48.580;7.756;2023-04-25T23:20:19;3.42;;;1.88;;
53271;SDS011;39160;48.580;7.756;2023-04-25T23:25:10;4.22;;;2.67;;
53271;SDS011;39160;48.580;7.756;2023-04-25T23:30:01;3.22;;;2.00;;
53271;SDS011;39160;48.580;7.756;2023-04-25T23:34:52;5.90;;;2.03;;
53271;SDS011;39160;48.580;7.756;2023-04-25T23:39:49;5.75;;;3.08;;
53271;SDS011;39160;48.580;7.756;2023-04-25T23:44:39;4.25;;;2.17;;
53271;SDS011;39160;48.580;7.756;2023-04-25T23:49:30;3.90;;;2.22;;
53271;SDS011;39160;48.580;7.756;2023-04-25T23:54:22;3.53;;;2.00;;
53271;SDS011;39160;48.580;7.756;2023-04-25T23:59:13;7.55;;;2.65;;
